Ferdig, Montana
Current Conditions -  °F | °C
As of 9:56 PM on Sunday 19 Oct 2014 (Local Time) from KCTB Reporting Station
Clear Clear  
Wind Chill: 51°   Ceiling: Unl
Heat Index: 51°   Visibility: 10mi
Dew Point: 30°   Wind: 10mph
Humidity: 44%   Direction: 250°WSW
Pressure: 29.88"   Gusts: NA
Location:  48.7543°N, 111.774°W
Report Text: KCTB 200356Z AUTO 25009KT 10SM CLR 11/M01 A2988 RMK AO2 SLP114 T01061011 $
Loading
Personal Weather Stations






























Interactive Weather Map
Tropical Storm Tracking
New forecast layout! Learn more

10-Day Weather Forecast

Advertisements
Track Severe Weather on mobile